Time;durP1;ratioP1;P1;durP2;ratioP2;P2;SDS_P1;SDS_P2;PMS_P1;PMS_P2;Temp;Humidity;BMP_temperature;BMP_pressure;BME280_temperature;BME280_humidity;BME280_pressure;Samples;Min_cycle;Max_cycle;Signal;HPM_P1;HPM_P2
2022/03/29 00:00:08;;;;;;;19.65;5.83;;;;;;;4.13;81.16;100674.57;1673058;86;21060;-62
2022/03/29 00:02:41;;;;;;;12.20;5.15;;;;;;;4.12;81.50;100669.08;1690981;84;21034;-61
2022/03/29 00:05:10;;;;;;;14.58;5.28;;;;;;;4.09;81.92;100664.45;1672989;86;21118;-62
2022/03/29 00:07:37;;;;;;;19.02;5.37;;;;;;;4.03;82.61;100662.00;1691171;85;20986;-61
2022/03/29 00:10:06;;;;;;;14.38;4.80;;;;;;;4.04;83.17;100661.16;1672919;86;21130;-62
2022/03/29 00:12:35;;;;;;;13.13;4.75;;;;;;;3.99;83.90;100659.92;1691222;85;21090;-62
2022/03/29 00:15:07;;;;;;;17.00;4.62;;;;;;;3.99;84.45;100655.69;1691091;85;21031;-62
2022/03/29 00:21:37;;;;;;;21.80;4.83;;;;;;;3.93;85.02;100652.38;1690921;85;21054;-62
2022/03/29 00:24:07;;;;;;;10.10;4.22;;;;;;;3.92;85.78;100645.17;1672961;86;21055;-61
2022/03/29 00:26:34;;;;;;;12.65;4.45;;;;;;;3.91;86.24;100642.64;1691253;85;21015;-61
2022/03/29 00:29:01;;;;;;;15.72;4.42;;;;;;;3.97;86.33;100636.18;1673030;86;21059;-62
2022/03/29 00:31:31;;;;;;;13.03;4.53;;;;;;;3.91;86.60;100626.09;1690878;84;21602;-61
2022/03/29 00:33:58;;;;;;;16.95;4.58;;;;;;;3.93;87.11;100628.18;1673017;86;21067;-62
2022/03/29 00:36:27;;;;;;;11.55;3.47;;;;;;;3.91;87.50;100624.38;1690808;85;21026;-62
2022/03/29 00:38:54;;;;;;;12.40;3.60;;;;;;;3.89;88.40;100626.54;1672937;86;21055;-62
2022/03/29 00:41:22;;;;;;;12.33;3.85;;;;;;;3.85;88.99;100620.64;1691121;85;21054;-61
2022/03/29 00:43:49;;;;;;;13.20;3.95;;;;;;;3.88;90.00;100621.05;1673012;86;21055;-62
2022/03/29 00:46:18;;;;;;;23.70;5.75;;;;;;;3.91;90.57;100620.98;1691126;85;21041;-62
2022/03/29 00:48:47;;;;;;;12.07;3.77;;;;;;;3.89;91.21;100626.54;1672918;86;21070;-62
2022/03/29 00:51:16;;;;;;;8.50;3.50;;;;;;;3.90;91.83;100619.33;1690862;85;21070;-62
2022/03/29 00:53:44;;;;;;;16.52;3.90;;;;;;;3.90;92.53;100626.52;1673264;86;21078;-62
2022/03/29 00:56:12;;;;;;;15.23;3.70;;;;;;;3.90;93.02;100634.61;1692846;84;21066;-62
2022/03/29 00:58:40;;;;;;;10.80;3.72;;;;;;;3.89;93.83;100621.01;1717588;83;21035;-62
2022/03/29 01:01:10;;;;;;;14.25;3.95;;;;;;;3.90;94.41;100618.05;1702643;84;21090;-62
2022/03/29 01:03:38;;;;;;;14.07;3.75;;;;;;;3.86;95.05;100618.52;1714477;84;21063;-62
2022/03/29 01:06:08;;;;;;;13.95;4.08;;;;;;;3.91;95.76;100613.35;1688208;84;21516;-61
2022/03/29 01:08:36;;;;;;;17.55;4.08;;;;;;;3.94;95.78;100598.04;1714224;84;21556;-62
2022/03/29 01:11:12;;;;;;;11.63;3.47;;;;;;;3.92;96.28;100601.05;1699856;84;21050;-62
2022/03/29 01:13:41;;;;;;;10.65;3.83;;;;;;;3.89;97.09;100601.08;1717502;83;21035;-61
2022/03/29 01:18:57;;;;;;;12.58;3.70;;;;;;;3.91;97.86;100588.72;1717516;83;21039;-62
2022/03/29 01:21:29;;;;;;;11.93;4.40;;;;;;;3.84;98.51;100590.97;1700063;84;21091;-61
2022/03/29 01:23:56;;;;;;;17.95;3.95;;;;;;;3.82;99.08;100590.15;1717810;83;21059;-61
2022/03/29 01:26:24;;;;;;;17.48;4.35;;;;;;;3.82;99.70;100588.88;1702986;84;21074;-61
2022/03/29 01:28:52;;;;;;;14.90;4.03;;;;;;;3.75;100.00;100593.23;1699782;84;21079;-61
2022/03/29 01:31:20;;;;;;;14.87;4.30;;;;;;;3.80;100.00;100582.97;1717585;83;21035;-62
2022/03/29 01:33:50;;;;;;;18.90;4.70;;;;;;;3.75;100.00;100578.36;1701042;84;21383;-62
2022/03/29 01:36:17;;;;;;;14.87;4.67;;;;;;;3.76;100.00;100589.80;1714409;84;21051;-62
2022/03/29 01:38:46;;;;;;;11.97;4.85;;;;;;;3.74;100.00;100597.89;1714627;84;21071;-62
2022/03/29 01:41:14;;;;;;;14.58;4.72;;;;;;;3.69;100.00;100597.14;1714395;84;21051;-62
2022/03/29 01:43:41;;;;;;;14.18;4.80;;;;;;;3.58;100.00;100593.45;1714788;84;21476;-62
2022/03/29 01:46:12;;;;;;;11.88;4.83;;;;;;;3.63;100.00;100595.08;1714434;84;21015;-62
2022/03/29 01:48:39;;;;;;;18.98;4.78;;;;;;;3.62;100.00;100589.16;1714392;84;21042;-62
2022/03/29 01:51:06;;;;;;;13.28;4.53;;;;;;;3.62;100.00;100594.25;1714674;83;21012;-62
2022/03/29 01:53:34;;;;;;;13.05;4.60;;;;;;;3.61;100.00;100582.41;1714436;84;21086;-62
2022/03/29 01:56:02;;;;;;;17.40;4.62;;;;;;;3.59;100.00;100584.12;1714531;84;21091;-62
2022/03/29 01:58:30;;;;;;;16.57;5.15;;;;;;;3.59;100.00;100584.12;1714438;84;21083;-62
2022/03/29 02:00:58;;;;;;;14.58;5.17;;;;;;;3.54;100.00;100576.53;1714642;84;21055;-62
2022/03/29 02:03:25;;;;;;;20.23;4.97;;;;;;;3.53;100.00;100571.49;1714363;84;21108;-62
2022/03/29 02:05:55;;;;;;;13.95;4.72;;;;;;;3.51;100.00;100566.41;1713124;84;21057;-61
2022/03/29 02:08:23;;;;;;;18.52;5.10;;;;;;;3.52;100.00;100558.34;1714608;84;21499;-61
2022/03/29 02:10:52;;;;;;;12.95;4.62;;;;;;;3.51;100.00;100556.23;1714335;84;21051;-62
2022/03/29 02:13:21;;;;;;;12.07;4.25;;;;;;;3.48;100.00;100550.34;1714605;84;21035;-62
2022/03/29 02:15:49;;;;;;;15.38;4.40;;;;;;;3.46;100.00;100546.98;1714383;84;21524;-62
2022/03/29 02:18:17;;;;;;;19.90;4.65;;;;;;;3.58;100.00;100546.80;1714603;84;21046;-61
2022/03/29 02:20:47;;;;;;;17.00;4.47;;;;;;;3.60;100.00;100556.52;1714280;83;21465;-62
2022/03/29 02:23:15;;;;;;;16.97;4.78;;;;;;;3.56;100.00;100553.61;1714531;84;21070;-62
2022/03/29 02:25:47;;;;;;;14.73;4.22;;;;;;;3.52;100.00;100547.72;1714388;84;21059;-61
2022/03/29 02:28:15;;;;;;;16.82;4.33;;;;;;;3.56;100.00;100541.72;1714912;84;21082;-61
2022/03/29 02:30:44;;;;;;;16.52;4.20;;;;;;;3.53;100.00;100546.04;1714569;84;21043;-59
2022/03/29 02:33:12;;;;;;;12.15;4.10;;;;;;;3.56;100.00;100538.34;1714361;84;21063;-61
2022/03/29 02:35:39;;;;;;;15.60;4.50;;;;;;;3.60;100.00;100534.89;1714519;84;21082;-61
2022/03/29 02:38:07;;;;;;;11.90;4.00;;;;;;;3.64;100.00;100529.33;1714378;84;21048;-60
2022/03/29 02:40:35;;;;;;;11.83;4.37;;;;;;;3.56;100.00;100544.27;1714614;84;21051;-61
2022/03/29 02:43:02;;;;;;;12.68;3.70;;;;;;;3.58;100.00;100549.34;1714355;84;21083;-61
2022/03/29 02:45:29;;;;;;;9.65;3.95;;;;;;;3.52;100.00;100548.99;1714283;84;21012;-61
2022/03/29 02:48:00;;;;;;;18.95;4.53;;;;;;;3.50;100.00;100547.34;1714739;84;21504;-61
2022/03/29 02:50:28;;;;;;;10.40;3.62;;;;;;;3.52;100.00;100544.34;1714763;84;21027;-61
2022/03/29 02:52:59;;;;;;;15.32;5.03;;;;;;;3.55;100.00;100541.77;1714423;84;21122;-61
2022/03/29 02:55:30;;;;;;;12.43;3.90;;;;;;;3.63;100.00;100535.27;1714349;84;21028;-61
2022/03/29 02:57:58;;;;;;;12.40;3.55;;;;;;;3.55;100.00;100529.88;1716706;83;21000;-61
2022/03/29 03:00:27;;;;;;;13.20;3.67;;;;;;;3.51;100.00;100523.15;1717393;83;21019;-62
2022/03/29 03:02:56;;;;;;;18.82;3.95;;;;;;;3.48;100.00;100518.53;1681180;85;21044;-61
2022/03/29 03:05:26;;;;;;;15.55;3.98;;;;;;;3.51;100.00;100514.23;1681137;85;21069;-61
2022/03/29 03:07:54;;;;;;;16.65;3.77;;;;;;;3.56;100.00;100516.70;1653345;87;21128;-62
2022/03/29 03:10:25;;;;;;;15.58;3.33;;;;;;;3.55;100.00;100511.22;1681142;85;21034;-61
2022/03/29 03:12:53;;;;;;;12.15;3.95;;;;;;;3.54;100.00;100515.45;1653416;87;21084;-61
2022/03/29 03:15:23;;;;;;;9.80;3.77;;;;;;;3.57;100.00;100503.13;1681110;85;21606;-61
2022/03/29 03:17:54;;;;;;;12.18;3.67;;;;;;;3.57;100.00;100501.42;1653340;86;21065;-61
2022/03/29 03:20:24;;;;;;;17.42;3.60;;;;;;;3.54;100.00;100498.08;1681033;85;21021;-61
2022/03/29 03:22:51;;;;;;;16.65;3.70;;;;;;;3.58;100.00;100495.45;1653486;86;21041;-61
2022/03/29 03:25:20;;;;;;;12.05;3.85;;;;;;;3.61;100.00;100494.14;1652275;86;21603;-61
2022/03/29 03:27:48;;;;;;;17.62;4.53;;;;;;;3.60;100.00;100496.27;1681126;85;21586;-61
2022/03/29 03:30:17;;;;;;;13.58;3.40;;;;;;;3.67;100.00;100498.72;1653433;87;21065;-61
2022/03/29 03:32:44;;;;;;;18.37;3.70;;;;;;;3.69;100.00;100503.34;1681097;85;21031;-61
2022/03/29 03:35:12;;;;;;;13.85;3.35;;;;;;;3.68;100.00;100497.42;1653440;86;21112;-61
2022/03/29 03:37:40;;;;;;;17.60;3.60;;;;;;;3.69;100.00;100497.84;1681022;85;21052;-61
2022/03/29 03:40:11;;;;;;;21.12;4.33;;;;;;;3.66;100.00;100496.61;1653534;86;21061;-62
2022/03/29 03:42:40;;;;;;;16.97;3.47;;;;;;;3.81;100.00;100494.23;1681069;85;21110;-61
2022/03/29 03:45:09;;;;;;;14.83;3.60;;;;;;;3.75;100.00;100500.70;1653648;86;21052;-61
2022/03/29 03:47:37;;;;;;;17.27;3.47;;;;;;;3.85;100.00;100497.58;1681086;85;21079;-61
2022/03/29 03:50:07;;;;;;;15.45;4.00;;;;;;;3.91;100.00;100502.57;1653447;86;21096;-61
2022/03/29 03:52:35;;;;;;;14.98;3.60;;;;;;;3.90;100.00;100500.91;1680971;85;21031;-61
2022/03/29 03:55:03;;;;;;;18.20;3.83;;;;;;;3.97;100.00;100502.06;1653370;86;21112;-61
2022/03/29 03:57:31;;;;;;;16.37;3.65;;;;;;;3.98;100.00;100511.36;1688336;84;21066;-61
2022/03/29 03:59:58;;;;;;;12.18;3.10;;;;;;;3.99;100.00;100501.59;1671681;86;21063;-61
2022/03/29 04:02:27;;;;;;;13.53;3.55;;;;;;;4.04;100.00;100504.50;1704825;83;21037;-61
2022/03/29 04:04:55;;;;;;;18.85;3.47;;;;;;;4.11;100.00;100498.41;1700933;84;21036;-62
2022/03/29 04:07:23;;;;;;;15.38;3.50;;;;;;;4.09;100.00;100501.42;1698097;84;21056;-61
2022/03/29 04:09:52;;;;;;;14.07;3.65;;;;;;;4.09;100.00;100502.25;1699438;84;21536;-61
2022/03/29 04:12:20;;;;;;;19.15;3.50;;;;;;;4.13;100.00;100506.42;1699316;84;21077;-61
2022/03/29 04:14:47;;;;;;;16.42;4.05;;;;;;;4.18;100.00;100505.09;1699289;84;21575;-63
2022/03/29 04:17:14;;;;;;;10.35;3.70;;;;;;;4.17;100.00;100507.22;1699597;84;21180;-61
2022/03/29 04:19:43;;;;;;;16.00;3.47;;;;;;;4.24;100.00;100497.34;1699124;84;21021;-61
2022/03/29 04:22:12;;;;;;;14.78;3.10;;;;;;;4.34;100.00;100509.45;1699664;84;21519;-61
2022/03/29 04:24:39;;;;;;;18.42;3.40;;;;;;;4.40;100.00;100499.17;1699374;84;21052;-62
2022/03/29 04:27:07;;;;;;;20.68;3.65;;;;;;;4.50;100.00;100503.64;1699537;84;21561;-61
2022/03/29 04:29:35;;;;;;;19.35;3.90;;;;;;;4.63;100.00;100505.54;1699280;84;21068;-61
2022/03/29 04:32:05;;;;;;;25.72;4.00;;;;;;;4.69;100.00;100504.97;1699402;84;21512;-61
2022/03/29 04:34:34;;;;;;;14.45;3.65;;;;;;;4.83;100.00;100498.77;1699597;84;21548;-61
2022/03/29 04:37:02;;;;;;;17.65;3.67;;;;;;;4.91;100.00;100498.17;1697244;84;21067;-61
2022/03/29 04:39:31;;;;;;;12.60;3.72;;;;;;;4.94;100.00;100497.65;1694104;85;21532;-61
2022/03/29 04:41:58;;;;;;;20.92;3.60;;;;;;;5.02;100.00;100502.59;1693944;85;21098;-61
2022/03/29 04:44:25;;;;;;;15.28;3.87;;;;;;;5.06;100.00;100502.94;1694075;84;21046;-61
2022/03/29 04:46:53;;;;;;;15.85;3.42;;;;;;;5.13;100.00;100504.50;1694067;85;21059;-61
2022/03/29 04:49:20;;;;;;;19.52;3.47;;;;;;;5.24;100.00;100502.98;1693902;84;21083;-61
2022/03/29 04:51:48;;;;;;;10.18;3.65;;;;;;;5.28;100.00;100507.58;1693879;85;21086;-61
2022/03/29 04:54:15;;;;;;;19.80;3.62;;;;;;;5.43;100.00;100499.56;1693711;84;21047;-61
2022/03/29 04:56:42;;;;;;;15.98;3.85;;;;;;;5.45;100.00;100479.94;1694100;85;21019;-61
2022/03/29 04:59:09;;;;;;;15.10;3.70;;;;;;;5.45;100.00;100479.94;1683479;84;21111;-61
2022/03/29 05:01:37;;;;;;;20.82;3.90;;;;;;;5.61;100.00;100487.64;1683183;85;21047;-61
2022/03/29 05:04:05;;;;;;;14.47;3.45;;;;;;;5.68;100.00;100488.35;1682939;85;21091;-61
2022/03/29 05:06:32;;;;;;;20.17;4.42;;;;;;;5.73;100.00;100485.23;1683038;84;21083;-61
2022/03/29 05:09:00;;;;;;;19.35;3.80;;;;;;;5.80;100.00;100481.66;1682880;85;21042;-61
2022/03/29 05:11:27;;;;;;;16.55;3.52;;;;;;;5.87;100.00;100483.63;1684002;85;21010;-62
2022/03/29 05:13:54;;;;;;;13.45;3.30;;;;;;;5.98;100.00;100477.84;1651645;86;21041;-61
2022/03/29 05:16:22;;;;;;;20.55;3.85;;;;;;;6.04;100.00;100467.87;1661697;86;21058;-61
2022/03/29 05:18:51;;;;;;;22.02;3.90;;;;;;;6.06;100.00;100467.40;1633646;88;21033;-61
2022/03/29 05:21:18;;;;;;;15.68;3.58;;;;;;;6.18;100.00;100465.83;1661687;86;21564;-61
2022/03/29 05:23:48;;;;;;;21.82;4.10;;;;;;;6.31;100.00;100471.89;1633432;88;21029;-61
2022/03/29 05:26:16;;;;;;;17.92;3.62;;;;;;;6.42;100.00;100462.19;1661980;86;21015;-62
2022/03/29 05:28:43;;;;;;;16.07;3.22;;;;;;;6.52;100.00;100462.33;1633358;88;21109;-61
2022/03/29 05:31:11;;;;;;;17.60;3.67;;;;;;;6.62;100.00;100457.80;1680871;85;21063;-61
2022/03/29 05:33:38;;;;;;;15.18;3.35;;;;;;;6.64;100.00;100446.25;1657395;86;21028;-61
2022/03/29 05:36:08;;;;;;;22.30;3.58;;;;;;;6.66;100.00;100449.16;1683983;85;21018;-61
2022/03/29 05:38:35;;;;;;;19.55;3.52;;;;;;;6.77;100.00;100443.72;1686944;84;21564;-61
2022/03/29 05:41:03;;;;;;;18.65;3.75;;;;;;;6.90;100.00;100450.61;1657304;86;21083;-61
2022/03/29 05:43:30;;;;;;;15.45;3.80;;;;;;;7.07;100.00;100438.57;1687468;85;20998;-61
2022/03/29 05:48:52;;;;;;;16.60;3.98;;;;;;;7.29;100.00;100437.47;1661777;85;21064;-61
2022/03/29 05:51:21;;;;;;;16.02;3.58;;;;;;;7.26;100.00;100444.81;1690756;84;21649;-61
2022/03/29 05:53:49;;;;;;;13.90;3.75;;;;;;;7.39;100.00;100424.77;1648827;86;21057;-61
2022/03/29 05:56:17;;;;;;;17.73;4.17;;;;;;;7.50;100.00;100435.93;1661515;86;21030;-62
2022/03/29 05:58:44;;;;;;;22.07;4.62;;;;;;;7.61;100.00;100432.59;1634005;86;21075;-61
2022/03/29 06:01:12;;;;;;;16.82;3.62;;;;;;;7.75;100.00;100432.14;1644229;87;21085;-61
2022/03/29 06:03:40;;;;;;;14.23;3.90;;;;;;;7.71;99.63;100432.67;1644269;87;21096;-61
2022/03/29 06:06:08;;;;;;;16.15;3.90;;;;;;;7.83;99.20;100434.82;1644242;87;21072;-61
2022/03/29 06:08:36;;;;;;;18.07;4.45;;;;;;;7.88;99.21;100429.98;1669357;84;21581;-61
2022/03/29 06:11:04;;;;;;;22.42;4.50;;;;;;;8.04;98.96;100417.03;1673809;86;21535;-61
2022/03/29 06:13:33;;;;;;;17.45;4.30;;;;;;;8.11;97.71;100415.94;1645329;86;21557;-61
2022/03/29 06:16:02;;;;;;;14.98;4.78;;;;;;;8.22;96.77;100420.22;1685182;85;21120;-62
2022/03/29 06:18:31;;;;;;;14.07;4.37;;;;;;;8.31;96.65;100420.78;1674548;86;21564;-61
2022/03/29 06:20:58;;;;;;;18.48;4.10;;;;;;;8.52;95.56;100420.49;1674258;84;21100;-61
2022/03/29 06:23:26;;;;;;;16.75;4.10;;;;;;;8.53;94.97;100414.45;1673883;84;21040;-61
2022/03/29 06:25:55;;;;;;;17.82;4.42;;;;;;;8.71;93.88;100419.34;1657147;87;21075;-60
2022/03/29 06:28:22;;;;;;;21.90;4.53;;;;;;;8.77;92.94;100410.13;1673057;86;21583;-61
2022/03/29 06:30:53;;;;;;;15.72;3.77;;;;;;;8.85;92.27;100414.98;1672885;86;21079;-61
2022/03/29 06:33:21;;;;;;;15.00;4.50;;;;;;;9.05;92.01;100408.62;1638162;87;21546;-62
2022/03/29 06:35:49;;;;;;;16.50;4.20;;;;;;;9.26;90.43;100404.81;1682072;85;21024;-61
2022/03/29 06:38:21;;;;;;;10.98;4.20;;;;;;;9.30;89.59;100408.92;1674556;86;21056;-61
2022/03/29 06:40:47;;;;;;;22.07;4.90;;;;;;;9.40;88.65;100412.33;1674264;86;21060;-61
2022/03/29 06:43:14;;;;;;;16.32;4.00;;;;;;;9.54;88.31;100401.95;1674203;86;21028;-61
2022/03/29 06:45:43;;;;;;;17.52;4.65;;;;;;;9.71;87.03;100401.23;1649512;86;21575;-61
2022/03/29 06:48:13;;;;;;;18.42;5.20;;;;;;;9.77;86.11;100416.40;1646952;86;21078;-61
2022/03/29 06:50:40;;;;;;;21.70;4.90;;;;;;;9.86;85.56;100408.77;1662026;86;21088;-61
2022/03/29 06:53:08;;;;;;;15.95;4.42;;;;;;;9.95;84.39;100406.61;1674242;86;21642;-63
2022/03/29 06:55:35;;;;;;;20.48;4.45;;;;;;;9.98;83.73;100404.38;1674431;86;21076;-62
2022/03/29 06:58:05;;;;;;;19.17;4.67;;;;;;;10.16;83.33;100394.58;1674308;84;21030;-61
2022/03/29 07:00:32;;;;;;;23.67;5.22;;;;;;;10.33;82.95;100409.74;1696547;84;21064;-61
2022/03/29 07:03:00;;;;;;;12.95;4.62;;;;;;;10.44;82.13;100406.22;1699651;84;21025;-61
2022/03/29 07:05:29;;;;;;;15.35;4.65;;;;;;;10.48;80.72;100404.34;1699250;84;21040;-61
2022/03/29 07:07:57;;;;;;;17.17;4.70;;;;;;;10.60;80.48;100398.64;1699774;84;21099;-61
2022/03/29 07:13:12;;;;;;;17.65;5.50;;;;;;;10.93;79.49;100379.94;1699652;84;21108;-61
2022/03/29 07:15:41;;;;;;;16.87;4.70;;;;;;;10.99;78.08;100371.95;1699340;84;21087;-62
2022/03/29 07:18:10;;;;;;;17.98;4.55;;;;;;;10.86;78.34;100369.10;1698779;84;21084;-61
2022/03/29 07:20:40;;;;;;;14.93;5.35;;;;;;;11.09;77.82;100362.87;1698575;84;21083;-61
2022/03/29 07:23:11;;;;;;;11.63;4.78;;;;;;;11.09;77.21;100358.15;1698566;84;21063;-61
2022/03/29 07:25:37;;;;;;;15.40;4.97;;;;;;;11.39;76.72;100352.80;1698336;84;21048;-62
2022/03/29 07:28:11;;;;;;;25.72;4.97;;;;;;;11.32;75.73;100352.71;1698568;84;21068;-61
2022/03/29 07:30:43;;;;;;;14.30;4.92;;;;;;;11.35;76.61;100347.39;1698454;84;21083;-61
2022/03/29 07:33:11;;;;;;;23.90;5.67;;;;;;;11.42;74.32;100356.95;1698621;84;21639;-61
2022/03/29 07:35:40;;;;;;;17.50;4.83;;;;;;;11.65;74.52;100367.86;1698832;84;21077;-61
2022/03/29 07:38:09;;;;;;;14.20;4.83;;;;;;;11.78;73.86;100365.86;1698786;84;21079;-61
2022/03/29 07:40:38;;;;;;;14.05;4.55;;;;;;;11.92;73.98;100356.16;1698492;84;21060;-61
2022/03/29 07:43:08;;;;;;;20.25;4.70;;;;;;;12.24;73.20;100352.31;1698510;84;21683;-61
2022/03/29 07:45:37;;;;;;;17.73;5.25;;;;;;;12.04;72.76;100349.50;1698695;84;21028;-61
2022/03/29 07:48:06;;;;;;;16.75;5.30;;;;;;;12.28;71.47;100349.95;1698767;84;21084;-61
2022/03/29 07:50:35;;;;;;;19.65;5.00;;;;;;;12.30;71.14;100349.88;1698821;84;21063;-61
2022/03/29 07:53:05;;;;;;;15.05;5.30;;;;;;;12.47;71.16;100335.61;1698641;84;21156;-61
2022/03/29 07:55:35;;;;;;;16.40;4.62;;;;;;;12.44;70.75;100338.34;1698810;84;21579;-61
2022/03/29 07:58:03;;;;;;;15.90;4.80;;;;;;;12.48;70.84;100338.55;1698703;84;21583;-61
2022/03/29 08:00:31;;;;;;;13.90;4.58;;;;;;;12.51;70.62;100333.23;1701072;84;21111;-62
2022/03/29 08:03:06;;;;;;;15.43;4.83;;;;;;;12.67;70.87;100332.36;1702319;84;21024;-61
2022/03/29 08:05:36;;;;;;;16.00;4.95;;;;;;;12.78;70.08;100335.20;1702495;84;21540;-61
2022/03/29 08:08:04;;;;;;;20.43;5.50;;;;;;;12.81;69.98;100327.26;1703160;84;21031;-61
2022/03/29 08:10:33;;;;;;;15.58;4.80;;;;;;;12.93;69.60;100317.98;1703166;84;21103;-62
2022/03/29 08:13:07;;;;;;;16.65;5.50;;;;;;;13.00;69.65;100324.48;1702848;84;21092;-61
2022/03/29 08:15:35;;;;;;;15.90;5.47;;;;;;;13.21;69.35;100316.77;1703109;84;21021;-61
2022/03/29 08:18:07;;;;;;;15.40;5.30;;;;;;;13.21;68.14;100313.36;1702834;84;21552;-61
2022/03/29 08:20:37;;;;;;;19.32;5.60;;;;;;;13.45;68.23;100316.29;1700467;84;21052;-61
2022/03/29 08:23:22;;;;;;;16.12;5.25;;;;;;;13.46;68.07;100326.16;1702908;84;21064;-61
2022/03/29 08:25:42;;;;;;;19.00;5.53;;;;;;;13.60;67.93;100315.83;1703192;84;21545;-61
2022/03/29 08:28:11;;;;;;;29.07;6.30;;;;;;;13.69;67.58;100304.13;1703287;84;21540;-61
2022/03/29 08:30:42;;;;;;;24.30;5.40;;;;;;;13.74;66.87;100305.48;1703144;84;21561;-61
2022/03/29 08:33:09;;;;;;;20.55;5.53;;;;;;;13.90;67.30;100314.45;1703227;84;21095;-61
2022/03/29 08:35:38;;;;;;;19.67;5.72;;;;;;;13.91;66.34;100311.39;1702942;84;21100;-61
2022/03/29 08:38:06;;;;;;;19.20;5.75;;;;;;;14.08;66.45;100305.19;1703156;84;21112;-61
2022/03/29 08:40:34;;;;;;;16.42;5.85;;;;;;;14.40;65.98;100304.00;1703008;84;21099;-61
2022/03/29 08:43:05;;;;;;;15.28;5.03;;;;;;;14.38;64.76;100310.22;1703061;84;21088;-62
2022/03/29 08:45:32;;;;;;;17.65;5.60;;;;;;;14.17;64.02;100292.95;1703117;84;21044;-61
2022/03/29 08:48:00;;;;;;;18.70;6.00;;;;;;;14.28;63.73;100285.83;1703198;84;21489;-61
2022/03/29 08:50:36;;;;;;;20.72;4.85;;;;;;;14.53;63.32;100290.27;1702769;84;21111;-61
2022/03/29 08:53:07;;;;;;;19.90;5.53;;;;;;;14.62;62.86;100274.18;1703202;84;21143;-61
2022/03/29 08:55:35;;;;;;;25.12;6.17;;;;;;;14.61;63.34;100286.28;1703080;84;21092;-61
2022/03/29 08:58:02;;;;;;;21.05;5.10;;;;;;;14.68;62.38;100275.08;1703458;84;21087;-61
2022/03/29 09:00:30;;;;;;;16.20;6.10;;;;;;;14.88;62.72;100267.30;1702896;84;21036;-61
2022/03/29 09:02:58;;;;;;;14.85;5.78;;;;;;;15.01;61.13;100272.02;1702716;84;21099;-61
2022/03/29 09:05:30;;;;;;;21.12;6.30;;;;;;;15.04;60.71;100269.68;1703094;84;21068;-61
2022/03/29 09:08:02;;;;;;;19.07;5.83;;;;;;;15.17;61.15;100273.12;1703098;84;21040;-62
2022/03/29 09:10:51;;;;;;;18.27;5.83;;;;;;;15.25;60.44;100267.44;1703391;84;21068;-61
2022/03/29 09:13:28;;;;;;;18.73;6.00;;;;;;;15.43;59.63;100275.73;1703038;84;21505;-62
2022/03/29 09:15:58;;;;;;;16.50;5.90;;;;;;;15.49;58.88;100276.61;1703149;84;21016;-62
2022/03/29 09:18:28;;;;;;;14.63;5.85;;;;;;;15.57;58.15;100252.71;1703013;84;21024;-61
2022/03/29 09:21:14;;;;;;;19.60;6.00;;;;;;;15.71;58.38;100270.75;1703047;84;21044;-61
2022/03/29 09:23:47;;;;;;;19.52;5.90;;;;;;;15.88;57.77;100268.33;1698710;84;21081;-61
2022/03/29 09:26:28;;;;;;;13.95;5.67;;;;;;;15.75;57.74;100263.62;1697225;84;21572;-61
2022/03/29 09:28:56;;;;;;;18.23;6.53;;;;;;;15.70;57.62;100270.40;1703063;84;21520;-62
2022/03/29 09:31:27;;;;;;;21.82;5.75;;;;;;;15.86;57.82;100256.40;1697828;84;21044;-61
2022/03/29 09:34:20;;;;;;;19.15;5.72;;;;;;;16.07;57.15;100249.67;1697610;84;21108;-61
2022/03/29 09:36:51;;;;;;;22.75;6.37;;;;;;;16.32;56.30;100243.56;1697995;84;21084;-62
2022/03/29 09:39:40;;;;;;;24.47;6.53;;;;;;;16.32;55.38;100243.56;1698004;84;21080;-62
2022/03/29 09:42:17;;;;;;;20.23;6.30;;;;;;;16.48;55.48;100240.66;1697878;84;21015;-62
2022/03/29 09:44:50;;;;;;;23.32;6.03;;;;;;;16.47;54.31;100243.39;1697801;84;21044;-61
2022/03/29 09:47:20;;;;;;;21.95;5.55;;;;;;;16.48;54.32;100237.23;1697851;84;21044;-63
2022/03/29 09:50:08;;;;;;;24.55;6.67;;;;;;;16.65;53.94;100239.91;1697885;84;21059;-62
2022/03/29 09:52:44;;;;;;;19.45;6.40;;;;;;;16.89;53.52;100232.92;1697631;84;21076;-62
2022/03/29 09:55:21;;;;;;;24.50;6.62;;;;;;;17.27;52.50;100231.77;1697853;84;21516;-62
2022/03/29 09:57:54;;;;;;;22.22;6.45;;;;;;;17.38;52.19;100220.55;1697678;84;21060;-61
2022/03/29 10:00:36;;;;;;;23.10;6.80;;;;;;;17.27;51.92;100227.86;1691148;84;21043;-61
2022/03/29 10:03:11;;;;;;;16.40;6.00;;;;;;;17.00;52.04;100222.52;1681803;85;21054;-61
2022/03/29 10:05:40;;;;;;;;;;;;;;;16.97;52.77;100224.07;1669482;86;21171;-62
2022/03/29 10:11:03;;;;;;;21.65;6.33;;;;;;;17.04;51.76;100213.20;1672817;86;21539;-63
2022/03/29 10:13:31;;;;;;;17.90;6.70;;;;;;;16.93;51.53;100216.14;1688308;85;21076;-62
2022/03/29 10:16:00;;;;;;;19.70;6.35;;;;;;;17.08;51.52;100210.72;1689650;85;21429;-61
2022/03/29 10:18:28;;;;;;;22.95;6.42;;;;;;;17.11;51.11;100206.57;1689776;85;21036;-61
2022/03/29 10:21:00;;;;;;;24.35;6.78;;;;;;;17.36;50.58;100197.25;1689359;85;21554;-62
2022/03/29 10:23:30;;;;;;;19.10;6.97;;;;;;;17.55;50.45;100197.11;1689836;84;21041;-62
2022/03/29 10:26:00;;;;;;;22.77;6.67;;;;;;;17.72;49.26;100194.02;1689845;84;21020;-62
2022/03/29 10:28:28;;;;;;;18.30;6.62;;;;;;;17.75;48.67;100180.75;1694070;83;21035;-61
2022/03/29 10:30:58;;;;;;;24.85;6.50;;;;;;;17.80;49.34;100187.73;1705289;83;21019;-62
2022/03/29 10:33:33;;;;;;;19.20;6.42;;;;;;;17.86;48.95;100185.13;1681958;83;21019;-61
2022/03/29 10:36:10;;;;;;;22.22;7.25;;;;;;;18.21;48.50;100184.91;1693233;83;21090;-62
2022/03/29 10:38:52;;;;;;;26.07;6.92;;;;;;;18.33;48.45;100178.32;1666612;85;21005;-63
2022/03/29 10:41:34;;;;;;;27.30;7.55;;;;;;;18.47;47.13;100171.53;1665242;85;21023;-62
2022/03/29 10:44:10;;;;;;;24.43;6.97;;;;;;;18.39;47.15;100185.66;1670775;86;20987;-62
2022/03/29 10:46:48;;;;;;;18.05;6.87;;;;;;;18.29;47.44;100176.92;1669427;86;21625;-63
2022/03/29 10:49:34;;;;;;;22.85;6.65;;;;;;;18.50;47.82;100184.29;1670653;84;21055;-63
2022/03/29 10:52:12;;;;;;;22.90;6.65;;;;;;;18.55;47.41;100173.47;1680199;85;21092;-61
2022/03/29 10:54:41;;;;;;;25.45;6.92;;;;;;;18.72;47.24;100157.75;1661953;86;21120;-62
2022/03/29 10:57:28;;;;;;;20.30;6.90;;;;;;;18.46;47.22;100160.73;1666380;85;21087;-62
2022/03/29 11:00:17;;;;;;;21.80;7.05;;;;;;;18.04;46.87;100159.86;1691475;84;21570;-62
2022/03/29 11:03:06;;;;;;;20.23;6.90;;;;;;;17.94;47.33;100152.81;1714852;83;21069;-61
2022/03/29 11:06:06;;;;;;;24.70;7.05;;;;;;;18.13;46.78;100154.74;1673574;85;21066;-62
2022/03/29 11:08:41;;;;;;;27.93;7.03;;;;;;;18.11;46.77;100147.53;1715581;83;21005;-62
2022/03/29 11:11:37;;;;;;;24.00;7.22;;;;;;;17.77;47.53;100141.58;1686951;84;21698;-62
2022/03/29 11:14:39;;;;;;;20.20;6.58;;;;;;;17.70;48.18;100137.80;1642266;83;21066;-62
2022/03/29 11:17:13;;;;;;;15.28;6.55;;;;;;;17.43;48.12;100138.56;1714729;83;21018;-62
2022/03/29 11:19:49;;;;;;;21.35;7.50;;;;;;;17.56;49.21;100123.31;1686762;84;21124;-61
2022/03/29 11:22:36;;;;;;;23.80;7.37;;;;;;;17.74;48.40;100129.64;1685434;85;21078;-61
2022/03/29 11:25:09;;;;;;;26.97;7.45;;;;;;;17.80;48.29;100125.24;1686707;84;21501;-62
2022/03/29 11:27:38;;;;;;;20.40;7.47;;;;;;;18.23;46.93;100120.95;1715310;84;21177;-61
2022/03/29 11:30:09;;;;;;;20.85;7.08;;;;;;;18.66;46.51;100127.80;1686889;85;21116;-61
2022/03/29 11:32:57;;;;;;;;;;;;;;;;;;;;;
2022/03/29 11:35:20;;;;;;;18.37;6.70;;;;;;;18.50;46.36;100122.22;1685526;85;21023;-61
2022/03/29 11:37:49;;;;;;;23.45;7.47;;;;;;;18.74;46.43;100119.33;1715588;83;21511;-62
2022/03/29 11:40:19;;;;;;;22.22;7.05;;;;;;;18.96;46.67;100107.94;1686769;85;21116;-62
2022/03/29 11:42:54;;;;;;;17.10;7.15;;;;;;;19.07;46.01;100109.13;1715469;83;21062;-61
2022/03/29 11:45:26;;;;;;;21.60;7.62;;;;;;;18.94;45.42;100102.03;1686716;85;21064;-61
2022/03/29 11:47:59;;;;;;;14.25;6.55;;;;;;;18.64;44.79;100100.21;1715697;83;21083;-61